sensor_id;sensor_type;location;lat;lon;timestamp;P1;durP1;ratioP1;P2;durP2;ratioP2
40453;SDS011;26160;51.858;4.398;2022-11-15T00:00:44;134.47;;;49.37;;
40453;SDS011;26160;51.858;4.398;2022-11-15T00:03:12;122.93;;;47.90;;
40453;SDS011;26160;51.858;4.398;2022-11-15T00:05:40;146.03;;;49.60;;
40453;SDS011;26160;51.858;4.398;2022-11-15T00:08:06;138.73;;;49.13;;
40453;SDS011;26160;51.858;4.398;2022-11-15T00:10:33;131.63;;;49.40;;
40453;SDS011;26160;51.858;4.398;2022-11-15T00:12:59;108.13;;;44.13;;
40453;SDS011;26160;51.858;4.398;2022-11-15T00:15:25;145.87;;;48.80;;
40453;SDS011;26160;51.858;4.398;2022-11-15T00:17:51;115.90;;;46.63;;
40453;SDS011;26160;51.858;4.398;2022-11-15T00:20:17;144.50;;;48.93;;
40453;SDS011;26160;51.858;4.398;2022-11-15T00:22:44;151.57;;;52.57;;
40453;SDS011;26160;51.858;4.398;2022-11-15T00:25:10;143.80;;;50.77;;
40453;SDS011;26160;51.858;4.398;2022-11-15T00:27:36;155.03;;;52.50;;
40453;SDS011;26160;51.858;4.398;2022-11-15T00:30:02;139.07;;;52.70;;
40453;SDS011;26160;51.858;4.398;2022-11-15T00:32:32;132.27;;;52.80;;
40453;SDS011;26160;51.858;4.398;2022-11-15T00:34:58;178.53;;;57.73;;
40453;SDS011;26160;51.858;4.398;2022-11-15T00:37:24;164.70;;;56.17;;
40453;SDS011;26160;51.858;4.398;2022-11-15T00:39:53;151.90;;;55.70;;
40453;SDS011;26160;51.858;4.398;2022-11-15T00:42:19;173.47;;;60.30;;
40453;SDS011;26160;51.858;4.398;2022-11-15T00:44:45;187.73;;;59.43;;
40453;SDS011;26160;51.858;4.398;2022-11-15T00:47:12;150.00;;;57.77;;
40453;SDS011;26160;51.858;4.398;2022-11-15T00:49:38;144.23;;;55.17;;
40453;SDS011;26160;51.858;4.398;2022-11-15T00:52:04;172.27;;;59.00;;
40453;SDS011;26160;51.858;4.398;2022-11-15T00:54:30;157.67;;;58.30;;
40453;SDS011;26160;51.858;4.398;2022-11-15T00:56:56;171.40;;;61.43;;
40453;SDS011;26160;51.858;4.398;2022-11-15T00:59:22;175.77;;;61.10;;
40453;SDS011;26160;51.858;4.398;2022-11-15T01:01:48;177.43;;;60.90;;
40453;SDS011;26160;51.858;4.398;2022-11-15T01:04:14;170.07;;;61.03;;
40453;SDS011;26160;51.858;4.398;2022-11-15T01:06:41;170.57;;;62.23;;
40453;SDS011;26160;51.858;4.398;2022-11-15T01:09:07;156.07;;;58.90;;
40453;SDS011;26160;51.858;4.398;2022-11-15T01:11:33;157.90;;;58.73;;
40453;SDS011;26160;51.858;4.398;2022-11-15T01:13:59;168.17;;;62.60;;
40453;SDS011;26160;51.858;4.398;2022-11-15T01:16:25;208.03;;;67.80;;
40453;SDS011;26160;51.858;4.398;2022-11-15T01:18:51;170.90;;;62.90;;
40453;SDS011;26160;51.858;4.398;2022-11-15T01:21:18;142.67;;;57.10;;
40453;SDS011;26160;51.858;4.398;2022-11-15T01:23:44;163.67;;;61.33;;
40453;SDS011;26160;51.858;4.398;2022-11-15T01:26:12;149.73;;;57.77;;
40453;SDS011;26160;51.858;4.398;2022-11-15T01:28:40;143.30;;;57.40;;
40453;SDS011;26160;51.858;4.398;2022-11-15T01:31:09;143.57;;;58.27;;
40453;SDS011;26160;51.858;4.398;2022-11-15T01:33:40;138.50;;;58.73;;
40453;SDS011;26160;51.858;4.398;2022-11-15T01:36:08;134.53;;;52.87;;
40453;SDS011;26160;51.858;4.398;2022-11-15T01:38:41;121.43;;;54.57;;
40453;SDS011;26160;51.858;4.398;2022-11-15T01:41:15;147.30;;;57.83;;
40453;SDS011;26160;51.858;4.398;2022-11-15T01:43:43;123.90;;;52.90;;
40453;SDS011;26160;51.858;4.398;2022-11-15T01:46:23;116.30;;;51.33;;
40453;SDS011;26160;51.858;4.398;2022-11-15T01:49:11;130.03;;;53.57;;
40453;SDS011;26160;51.858;4.398;2022-11-15T01:51:41;119.23;;;52.63;;
40453;SDS011;26160;51.858;4.398;2022-11-15T01:54:10;111.83;;;53.00;;
40453;SDS011;26160;51.858;4.398;2022-11-15T01:56:45;110.65;;;50.50;;
40453;SDS011;26160;51.858;4.398;2022-11-15T01:59:17;120.37;;;52.60;;
40453;SDS011;26160;51.858;4.398;2022-11-15T02:04:21;138.50;;;57.23;;
40453;SDS011;26160;51.858;4.398;2022-11-15T02:06:50;109.27;;;52.40;;
40453;SDS011;26160;51.858;4.398;2022-11-15T02:09:17;128.17;;;54.33;;
40453;SDS011;26160;51.858;4.398;2022-11-15T02:11:43;130.63;;;54.20;;
40453;SDS011;26160;51.858;4.398;2022-11-15T02:14:10;108.33;;;50.60;;
40453;SDS011;26160;51.858;4.398;2022-11-15T02:24:48;112.18;;;51.40;;
40453;SDS011;26160;51.858;4.398;2022-11-15T02:30:02;87.53;;;46.30;;
40453;SDS011;26160;51.858;4.398;2022-11-15T02:32:53;90.40;;;46.40;;
40453;SDS011;26160;51.858;4.398;2022-11-15T02:38:05;95.03;;;47.33;;
40453;SDS011;26160;51.858;4.398;2022-11-15T02:41:01;82.73;;;45.57;;
40453;SDS011;26160;51.858;4.398;2022-11-15T02:49:34;69.60;;;43.47;;
40453;SDS011;26160;51.858;4.398;2022-11-15T02:52:03;71.97;;;42.13;;
40453;SDS011;26160;51.858;4.398;2022-11-15T02:54:29;70.60;;;40.97;;
40453;SDS011;26160;51.858;4.398;2022-11-15T02:56:59;65.65;;;40.42;;
40453;SDS011;26160;51.858;4.398;2022-11-15T03:07:25;56.90;;;33.63;;
40453;SDS011;26160;51.858;4.398;2022-11-15T03:10:48;55.43;;;33.97;;
40453;SDS011;26160;51.858;4.398;2022-11-15T03:15:56;49.20;;;32.55;;
40453;SDS011;26160;51.858;4.398;2022-11-15T03:18:32;48.23;;;31.07;;
40453;SDS011;26160;51.858;4.398;2022-11-15T03:21:03;50.42;;;30.73;;
40453;SDS011;26160;51.858;4.398;2022-11-15T03:23:32;46.63;;;29.67;;
40453;SDS011;26160;51.858;4.398;2022-11-15T03:26:00;40.20;;;26.90;;
40453;SDS011;26160;51.858;4.398;2022-11-15T03:28:34;43.75;;;27.52;;
40453;SDS011;26160;51.858;4.398;2022-11-15T03:31:04;40.47;;;26.40;;
40453;SDS011;26160;51.858;4.398;2022-11-15T03:33:51;41.67;;;25.48;;
40453;SDS011;26160;51.858;4.398;2022-11-15T03:36:22;35.35;;;22.58;;
40453;SDS011;26160;51.858;4.398;2022-11-15T03:38:51;37.90;;;23.55;;
40453;SDS011;26160;51.858;4.398;2022-11-15T03:41:27;35.40;;;21.20;;
40453;SDS011;26160;51.858;4.398;2022-11-15T03:44:16;34.75;;;21.75;;
40453;SDS011;26160;51.858;4.398;2022-11-15T03:49:38;32.53;;;18.50;;
40453;SDS011;26160;51.858;4.398;2022-11-15T03:52:12;38.65;;;21.98;;
40453;SDS011;26160;51.858;4.398;2022-11-15T03:57:16;29.52;;;19.50;;
40453;SDS011;26160;51.858;4.398;2022-11-15T03:59:42;34.85;;;22.02;;
40453;SDS011;26160;51.858;4.398;2022-11-15T04:02:08;35.30;;;22.13;;
40453;SDS011;26160;51.858;4.398;2022-11-15T04:04:36;37.22;;;22.33;;
40453;SDS011;26160;51.858;4.398;2022-11-15T04:07:02;39.20;;;23.73;;
40453;SDS011;26160;51.858;4.398;2022-11-15T04:09:29;41.90;;;25.33;;
40453;SDS011;26160;51.858;4.398;2022-11-15T04:11:55;36.85;;;24.63;;
40453;SDS011;26160;51.858;4.398;2022-11-15T04:14:22;38.27;;;23.37;;
40453;SDS011;26160;51.858;4.398;2022-11-15T04:16:48;38.57;;;23.30;;
40453;SDS011;26160;51.858;4.398;2022-11-15T04:19:14;38.88;;;24.42;;
40453;SDS011;26160;51.858;4.398;2022-11-15T04:21:59;34.63;;;22.30;;
40453;SDS011;26160;51.858;4.398;2022-11-15T04:24:43;37.00;;;23.08;;
40453;SDS011;26160;51.858;4.398;2022-11-15T04:27:09;44.13;;;23.58;;
40453;SDS011;26160;51.858;4.398;2022-11-15T04:29:38;36.17;;;21.15;;
40453;SDS011;26160;51.858;4.398;2022-11-15T04:32:05;36.35;;;22.30;;
40453;SDS011;26160;51.858;4.398;2022-11-15T04:34:32;35.22;;;22.27;;
40453;SDS011;26160;51.858;4.398;2022-11-15T04:36:58;41.63;;;24.67;;
40453;SDS011;26160;51.858;4.398;2022-11-15T04:40:00;31.98;;;22.30;;
40453;SDS011;26160;51.858;4.398;2022-11-15T04:42:26;31.27;;;20.80;;
40453;SDS011;26160;51.858;4.398;2022-11-15T04:44:52;34.70;;;21.40;;
40453;SDS011;26160;51.858;4.398;2022-11-15T04:47:18;35.63;;;20.60;;
40453;SDS011;26160;51.858;4.398;2022-11-15T04:49:44;32.75;;;20.23;;
40453;SDS011;26160;51.858;4.398;2022-11-15T04:52:10;35.42;;;19.70;;
40453;SDS011;26160;51.858;4.398;2022-11-15T04:54:36;31.40;;;20.50;;
40453;SDS011;26160;51.858;4.398;2022-11-15T04:57:02;33.53;;;19.85;;
40453;SDS011;26160;51.858;4.398;2022-11-15T04:59:29;30.70;;;17.57;;
40453;SDS011;26160;51.858;4.398;2022-11-15T05:01:55;31.02;;;17.83;;
40453;SDS011;26160;51.858;4.398;2022-11-15T05:04:21;32.25;;;18.40;;
40453;SDS011;26160;51.858;4.398;2022-11-15T05:06:48;29.33;;;18.15;;
40453;SDS011;26160;51.858;4.398;2022-11-15T05:09:16;28.70;;;17.67;;
40453;SDS011;26160;51.858;4.398;2022-11-15T05:11:43;32.35;;;16.27;;
40453;SDS011;26160;51.858;4.398;2022-11-15T05:14:12;28.90;;;16.20;;
40453;SDS011;26160;51.858;4.398;2022-11-15T05:16:39;25.08;;;15.35;;
40453;SDS011;26160;51.858;4.398;2022-11-15T05:19:08;26.88;;;16.17;;
40453;SDS011;26160;51.858;4.398;2022-11-15T05:21:34;32.90;;;16.67;;
40453;SDS011;26160;51.858;4.398;2022-11-15T05:24:03;23.70;;;15.30;;
40453;SDS011;26160;51.858;4.398;2022-11-15T05:26:30;29.95;;;15.65;;
40453;SDS011;26160;51.858;4.398;2022-11-15T05:28:57;24.17;;;14.20;;
40453;SDS011;26160;51.858;4.398;2022-11-15T05:31:25;25.73;;;14.85;;
40453;SDS011;26160;51.858;4.398;2022-11-15T05:33:52;24.80;;;14.45;;
40453;SDS011;26160;51.858;4.398;2022-11-15T05:36:31;24.13;;;14.40;;
40453;SDS011;26160;51.858;4.398;2022-11-15T05:39:06;21.83;;;12.57;;
40453;SDS011;26160;51.858;4.398;2022-11-15T05:41:39;24.50;;;12.27;;
40453;SDS011;26160;51.858;4.398;2022-11-15T05:44:13;23.95;;;12.57;;
40453;SDS011;26160;51.858;4.398;2022-11-15T05:46:47;20.40;;;11.32;;
40453;SDS011;26160;51.858;4.398;2022-11-15T05:49:16;22.67;;;12.93;;
40453;SDS011;26160;51.858;4.398;2022-11-15T05:51:47;20.48;;;11.32;;
40453;SDS011;26160;51.858;4.398;2022-11-15T05:54:15;24.63;;;12.77;;
40453;SDS011;26160;51.858;4.398;2022-11-15T05:56:45;17.43;;;11.00;;
40453;SDS011;26160;51.858;4.398;2022-11-15T05:59:12;18.17;;;10.80;;
40453;SDS011;26160;51.858;4.398;2022-11-15T06:01:38;23.03;;;11.13;;
40453;SDS011;26160;51.858;4.398;2022-11-15T06:04:05;20.90;;;10.13;;
40453;SDS011;26160;51.858;4.398;2022-11-15T06:06:32;21.03;;;9.43;;
40453;SDS011;26160;51.858;4.398;2022-11-15T06:09:08;22.70;;;11.50;;
40453;SDS011;26160;51.858;4.398;2022-11-15T06:11:34;25.53;;;11.20;;
40453;SDS011;26160;51.858;4.398;2022-11-15T06:14:00;34.83;;;13.10;;
40453;SDS011;26160;51.858;4.398;2022-11-15T06:16:27;20.20;;;10.70;;
40453;SDS011;26160;51.858;4.398;2022-11-15T06:18:53;19.40;;;10.93;;
40453;SDS011;26160;51.858;4.398;2022-11-15T06:21:19;22.50;;;11.50;;
40453;SDS011;26160;51.858;4.398;2022-11-15T06:23:45;21.57;;;11.97;;
40453;SDS011;26160;51.858;4.398;2022-11-15T06:26:11;23.37;;;12.10;;
40453;SDS011;26160;51.858;4.398;2022-11-15T06:28:38;29.67;;;12.47;;
40453;SDS011;26160;51.858;4.398;2022-11-15T06:31:05;20.33;;;11.50;;
40453;SDS011;26160;51.858;4.398;2022-11-15T06:33:37;21.70;;;10.93;;
40453;SDS011;26160;51.858;4.398;2022-11-15T06:36:05;23.00;;;11.33;;
40453;SDS011;26160;51.858;4.398;2022-11-15T06:38:33;25.60;;;11.13;;
40453;SDS011;26160;51.858;4.398;2022-11-15T06:43:35;29.37;;;10.90;;
40453;SDS011;26160;51.858;4.398;2022-11-15T06:46:02;26.03;;;10.50;;
40453;SDS011;26160;51.858;4.398;2022-11-15T06:48:30;26.73;;;10.63;;
40453;SDS011;26160;51.858;4.398;2022-11-15T06:51:01;24.93;;;10.50;;
40453;SDS011;26160;51.858;4.398;2022-11-15T06:53:29;24.57;;;10.67;;
40453;SDS011;26160;51.858;4.398;2022-11-15T06:56:02;20.37;;;9.60;;
40453;SDS011;26160;51.858;4.398;2022-11-15T06:58:30;17.10;;;8.47;;
40453;SDS011;26160;51.858;4.398;2022-11-15T07:01:00;22.27;;;9.60;;
40453;SDS011;26160;51.858;4.398;2022-11-15T07:03:31;19.07;;;8.33;;
40453;SDS011;26160;51.858;4.398;2022-11-15T07:05:59;20.63;;;9.37;;
40453;SDS011;26160;51.858;4.398;2022-11-15T07:08:26;17.50;;;8.43;;
40453;SDS011;26160;51.858;4.398;2022-11-15T07:10:54;18.83;;;8.83;;
40453;SDS011;26160;51.858;4.398;2022-11-15T07:13:26;16.55;;;7.75;;
40453;SDS011;26160;51.858;4.398;2022-11-15T07:15:53;15.03;;;7.37;;
40453;SDS011;26160;51.858;4.398;2022-11-15T07:18:22;17.70;;;7.93;;
40453;SDS011;26160;51.858;4.398;2022-11-15T07:20:48;15.43;;;7.20;;
40453;SDS011;26160;51.858;4.398;2022-11-15T07:23:14;19.03;;;7.43;;
40453;SDS011;26160;51.858;4.398;2022-11-15T07:25:40;15.33;;;6.77;;
40453;SDS011;26160;51.858;4.398;2022-11-15T07:28:07;16.63;;;8.50;;
40453;SDS011;26160;51.858;4.398;2022-11-15T07:30:33;16.03;;;8.30;;
40453;SDS011;26160;51.858;4.398;2022-11-15T07:32:59;19.77;;;8.43;;
40453;SDS011;26160;51.858;4.398;2022-11-15T07:35:27;18.20;;;8.27;;
40453;SDS011;26160;51.858;4.398;2022-11-15T07:37:58;17.87;;;7.90;;
40453;SDS011;26160;51.858;4.398;2022-11-15T07:40:26;18.80;;;8.40;;
40453;SDS011;26160;51.858;4.398;2022-11-15T07:43:03;14.53;;;8.10;;
40453;SDS011;26160;51.858;4.398;2022-11-15T07:45:31;14.17;;;8.47;;
40453;SDS011;26160;51.858;4.398;2022-11-15T07:47:59;16.50;;;8.50;;
40453;SDS011;26160;51.858;4.398;2022-11-15T07:50:26;22.20;;;8.83;;
40453;SDS011;26160;51.858;4.398;2022-11-15T07:52:58;16.03;;;9.30;;
40453;SDS011;26160;51.858;4.398;2022-11-15T07:55:26;18.40;;;8.37;;
40453;SDS011;26160;51.858;4.398;2022-11-15T07:58:01;21.03;;;8.50;;
40453;SDS011;26160;51.858;4.398;2022-11-15T08:00:28;12.20;;;7.70;;
40453;SDS011;26160;51.858;4.398;2022-11-15T08:03:01;14.37;;;7.33;;
40453;SDS011;26160;51.858;4.398;2022-11-15T08:05:31;16.47;;;6.90;;
40453;SDS011;26160;51.858;4.398;2022-11-15T08:07:58;16.83;;;7.00;;
40453;SDS011;26160;51.858;4.398;2022-11-15T08:10:24;18.93;;;8.40;;
40453;SDS011;26160;51.858;4.398;2022-11-15T08:13:01;19.30;;;8.67;;
40453;SDS011;26160;51.858;4.398;2022-11-15T08:15:32;15.37;;;9.53;;
40453;SDS011;26160;51.858;4.398;2022-11-15T08:18:04;21.27;;;10.70;;
40453;SDS011;26160;51.858;4.398;2022-11-15T08:20:32;20.70;;;10.73;;
40453;SDS011;26160;51.858;4.398;2022-11-15T08:23:00;16.33;;;9.97;;
40453;SDS011;26160;51.858;4.398;2022-11-15T08:25:29;21.97;;;9.90;;
40453;SDS011;26160;51.858;4.398;2022-11-15T08:28:03;13.47;;;9.53;;
40453;SDS011;26160;51.858;4.398;2022-11-15T08:30:34;17.20;;;9.93;;
40453;SDS011;26160;51.858;4.398;2022-11-15T08:33:03;19.20;;;9.93;;
40453;SDS011;26160;51.858;4.398;2022-11-15T08:35:30;17.33;;;9.73;;
40453;SDS011;26160;51.858;4.398;2022-11-15T08:37:56;16.77;;;10.07;;
40453;SDS011;26160;51.858;4.398;2022-11-15T08:40:23;15.57;;;10.03;;
40453;SDS011;26160;51.858;4.398;2022-11-15T08:42:50;16.50;;;9.17;;
40453;SDS011;26160;51.858;4.398;2022-11-15T08:45:16;15.30;;;9.40;;
40453;SDS011;26160;51.858;4.398;2022-11-15T08:47:42;18.80;;;9.93;;
40453;SDS011;26160;51.858;4.398;2022-11-15T08:50:08;13.97;;;8.47;;
40453;SDS011;26160;51.858;4.398;2022-11-15T08:52:34;14.97;;;8.63;;
40453;SDS011;26160;51.858;4.398;2022-11-15T08:55:01;20.93;;;9.03;;
40453;SDS011;26160;51.858;4.398;2022-11-15T08:57:30;15.00;;;8.37;;
40453;SDS011;26160;51.858;4.398;2022-11-15T08:59:56;12.77;;;7.30;;
40453;SDS011;26160;51.858;4.398;2022-11-15T09:02:22;14.43;;;8.00;;
40453;SDS011;26160;51.858;4.398;2022-11-15T09:04:49;18.33;;;9.23;;
40453;SDS011;26160;51.858;4.398;2022-11-15T09:07:15;12.80;;;8.10;;
40453;SDS011;26160;51.858;4.398;2022-11-15T09:09:41;19.37;;;10.60;;
40453;SDS011;26160;51.858;4.398;2022-11-15T09:12:07;12.83;;;8.93;;
40453;SDS011;26160;51.858;4.398;2022-11-15T09:14:34;15.57;;;8.37;;
40453;SDS011;26160;51.858;4.398;2022-11-15T09:17:03;15.97;;;8.30;;
40453;SDS011;26160;51.858;4.398;2022-11-15T09:19:32;15.87;;;7.90;;
40453;SDS011;26160;51.858;4.398;2022-11-15T09:21:58;17.57;;;7.93;;
40453;SDS011;26160;51.858;4.398;2022-11-15T09:24:27;8.63;;;6.83;;
40453;SDS011;26160;51.858;4.398;2022-11-15T09:26:53;17.13;;;7.53;;
40453;SDS011;26160;51.858;4.398;2022-11-15T09:29:19;13.17;;;7.40;;
40453;SDS011;26160;51.858;4.398;2022-11-15T09:31:45;14.97;;;7.17;;
40453;SDS011;26160;51.858;4.398;2022-11-15T09:34:11;12.97;;;6.97;;
40453;SDS011;26160;51.858;4.398;2022-11-15T09:36:37;12.60;;;6.87;;
40453;SDS011;26160;51.858;4.398;2022-11-15T09:39:03;10.32;;;6.90;;
40453;SDS011;26160;51.858;4.398;2022-11-15T09:44:41;13.85;;;7.00;;
40453;SDS011;26160;51.858;4.398;2022-11-15T09:49:55;10.45;;;5.90;;
40453;SDS011;26160;51.858;4.398;2022-11-15T09:52:27;12.10;;;4.90;;
40453;SDS011;26160;51.858;4.398;2022-11-15T09:54:53;8.23;;;5.10;;
40453;SDS011;26160;51.858;4.398;2022-11-15T09:57:38;11.75;;;5.25;;
40453;SDS011;26160;51.858;4.398;2022-11-15T10:00:25;14.18;;;5.07;;
40453;SDS011;26160;51.858;4.398;2022-11-15T10:03:06;10.50;;;5.30;;
40453;SDS011;26160;51.858;4.398;2022-11-15T10:05:39;11.50;;;4.78;;
40453;SDS011;26160;51.858;4.398;2022-11-15T10:11:15;13.00;;;4.20;;
40453;SDS011;26160;51.858;4.398;2022-11-15T10:13:46;10.73;;;4.07;;
40453;SDS011;26160;51.858;4.398;2022-11-15T10:16:20;8.93;;;4.15;;
40453;SDS011;26160;51.858;4.398;2022-11-15T10:24:42;11.88;;;4.05;;
40453;SDS011;26160;51.858;4.398;2022-11-15T10:27:10;9.52;;;3.65;;
40453;SDS011;26160;51.858;4.398;2022-11-15T10:29:42;9.40;;;3.60;;
40453;SDS011;26160;51.858;4.398;2022-11-15T10:32:13;12.48;;;3.40;;
40453;SDS011;26160;51.858;4.398;2022-11-15T10:34:41;6.60;;;3.10;;
40453;SDS011;26160;51.858;4.398;2022-11-15T10:37:08;11.73;;;3.10;;
40453;SDS011;26160;51.858;4.398;2022-11-15T10:39:34;11.43;;;3.42;;
40453;SDS011;26160;51.858;4.398;2022-11-15T10:44:52;9.15;;;3.38;;
40453;SDS011;26160;51.858;4.398;2022-11-15T10:47:23;8.77;;;2.90;;
40453;SDS011;26160;51.858;4.398;2022-11-15T10:49:58;3.90;;;2.03;;
40453;SDS011;26160;51.858;4.398;2022-11-15T10:52:34;11.82;;;2.35;;
40453;SDS011;26160;51.858;4.398;2022-11-15T10:55:12;7.88;;;2.47;;
40453;SDS011;26160;51.858;4.398;2022-11-15T10:57:49;7.50;;;2.50;;
40453;SDS011;26160;51.858;4.398;2022-11-15T11:00:44;8.93;;;2.10;;
40453;SDS011;26160;51.858;4.398;2022-11-15T11:06:12;7.97;;;1.77;;
40453;SDS011;26160;51.858;4.398;2022-11-15T11:08:56;7.28;;;2.30;;
40453;SDS011;26160;51.858;4.398;2022-11-15T11:11:50;10.57;;;1.95;;
40453;SDS011;26160;51.858;4.398;2022-11-15T11:14:29;8.48;;;1.92;;
40453;SDS011;26160;51.858;4.398;2022-11-15T11:17:05;6.00;;;1.40;;
40453;SDS011;26160;51.858;4.398;2022-11-15T11:26:24;7.05;;;1.90;;
40453;SDS011;26160;51.858;4.398;2022-11-15T11:30:16;8.52;;;1.67;;
40453;SDS011;26160;51.858;4.398;2022-11-15T12:03:59;5.32;;;1.42;;
40453;SDS011;26160;51.858;4.398;2022-11-15T12:06:35;9.75;;;1.17;;
40453;SDS011;26160;51.858;4.398;2022-11-15T12:20:26;8.02;;;0.98;;
40453;SDS011;26160;51.858;4.398;2022-11-15T12:29:02;10.68;;;1.50;;
40453;SDS011;26160;51.858;4.398;2022-11-15T12:43:45;14.15;;;1.65;;
40453;SDS011;26160;51.858;4.398;2022-11-15T12:56:47;9.30;;;1.60;;
40453;SDS011;26160;51.858;4.398;2022-11-15T13:02:41;8.57;;;1.42;;
40453;SDS011;26160;51.858;4.398;2022-11-15T13:11:18;6.47;;;1.30;;
40453;SDS011;26160;51.858;4.398;2022-11-15T13:16:46;8.93;;;1.45;;
40453;SDS011;26160;51.858;4.398;2022-11-15T13:25:01;5.47;;;1.23;;
40453;SDS011;26160;51.858;4.398;2022-11-15T13:43:15;13.82;;;1.35;;
40453;SDS011;26160;51.858;4.398;2022-11-15T13:48:18;3.80;;;0.90;;
40453;SDS011;26160;51.858;4.398;2022-11-15T13:50:47;6.32;;;1.17;;
40453;SDS011;26160;51.858;4.398;2022-11-15T13:53:13;7.35;;;1.10;;
40453;SDS011;26160;51.858;4.398;2022-11-15T13:55:44;7.05;;;1.35;;
40453;SDS011;26160;51.858;4.398;2022-11-15T13:58:28;5.18;;;1.45;;
40453;SDS011;26160;51.858;4.398;2022-11-15T14:01:00;4.35;;;0.90;;
40453;SDS011;26160;51.858;4.398;2022-11-15T14:06:34;8.50;;;1.35;;
40453;SDS011;26160;51.858;4.398;2022-11-15T14:24:16;6.20;;;1.20;;
40453;SDS011;26160;51.858;4.398;2022-11-15T14:29:34;5.85;;;1.05;;
40453;SDS011;26160;51.858;4.398;2022-11-15T14:32:17;9.43;;;1.30;;
40453;SDS011;26160;51.858;4.398;2022-11-15T14:34:47;10.10;;;1.38;;
40453;SDS011;26160;51.858;4.398;2022-11-15T14:37:29;6.72;;;1.08;;
40453;SDS011;26160;51.858;4.398;2022-11-15T14:40:01;3.90;;;0.95;;
40453;SDS011;26160;51.858;4.398;2022-11-15T14:42:29;9.13;;;1.50;;
40453;SDS011;26160;51.858;4.398;2022-11-15T14:45:09;5.53;;;1.05;;
40453;SDS011;26160;51.858;4.398;2022-11-15T14:47:41;6.18;;;1.40;;
40453;SDS011;26160;51.858;4.398;2022-11-15T14:50:15;5.15;;;1.00;;
40453;SDS011;26160;51.858;4.398;2022-11-15T14:52:45;4.32;;;1.98;;
40453;SDS011;26160;51.858;4.398;2022-11-15T14:55:17;5.18;;;1.77;;
40453;SDS011;26160;51.858;4.398;2022-11-15T14:58:06;7.32;;;1.73;;
40453;SDS011;26160;51.858;4.398;2022-11-15T15:00:36;9.45;;;2.33;;
40453;SDS011;26160;51.858;4.398;2022-11-15T15:03:05;7.72;;;2.28;;
40453;SDS011;26160;51.858;4.398;2022-11-15T15:08:10;8.43;;;2.55;;
40453;SDS011;26160;51.858;4.398;2022-11-15T15:10:41;5.00;;;2.42;;
40453;SDS011;26160;51.858;4.398;2022-11-15T15:13:28;7.55;;;1.35;;
40453;SDS011;26160;51.858;4.398;2022-11-15T15:15:56;4.63;;;1.50;;
40453;SDS011;26160;51.858;4.398;2022-11-15T15:21:29;6.85;;;1.25;;
40453;SDS011;26160;51.858;4.398;2022-11-15T15:27:02;4.60;;;1.33;;
40453;SDS011;26160;51.858;4.398;2022-11-15T15:29:28;6.65;;;1.42;;
40453;SDS011;26160;51.858;4.398;2022-11-15T15:34:35;4.72;;;1.58;;
40453;SDS011;26160;51.858;4.398;2022-11-15T15:37:31;7.45;;;1.30;;
40453;SDS011;26160;51.858;4.398;2022-11-15T15:43:10;4.97;;;1.10;;
40453;SDS011;26160;51.858;4.398;2022-11-15T15:45:44;4.20;;;1.30;;
40453;SDS011;26160;51.858;4.398;2022-11-15T15:48:14;5.60;;;1.30;;
40453;SDS011;26160;51.858;4.398;2022-11-15T15:50:47;6.97;;;1.92;;
40453;SDS011;26160;51.858;4.398;2022-11-15T15:53:15;4.38;;;1.33;;
40453;SDS011;26160;51.858;4.398;2022-11-15T15:55:46;7.28;;;2.20;;
40453;SDS011;26160;51.858;4.398;2022-11-15T15:58:12;10.32;;;2.35;;
40453;SDS011;26160;51.858;4.398;2022-11-15T16:00:42;7.68;;;1.55;;
40453;SDS011;26160;51.858;4.398;2022-11-15T16:03:08;5.20;;;1.50;;
40453;SDS011;26160;51.858;4.398;2022-11-15T16:05:34;5.55;;;2.00;;
40453;SDS011;26160;51.858;4.398;2022-11-15T16:08:00;6.18;;;2.92;;
40453;SDS011;26160;51.858;4.398;2022-11-15T16:10:32;5.40;;;1.85;;
40453;SDS011;26160;51.858;4.398;2022-11-15T16:13:02;9.35;;;2.10;;
40453;SDS011;26160;51.858;4.398;2022-11-15T16:15:29;4.55;;;2.20;;
40453;SDS011;26160;51.858;4.398;2022-11-15T16:17:57;8.45;;;2.33;;
40453;SDS011;26160;51.858;4.398;2022-11-15T16:20:32;6.97;;;2.13;;
40453;SDS011;26160;51.858;4.398;2022-11-15T16:22:59;7.20;;;2.95;;
40453;SDS011;26160;51.858;4.398;2022-11-15T16:25:26;7.15;;;2.90;;
40453;SDS011;26160;51.858;4.398;2022-11-15T16:27:52;8.88;;;2.38;;
40453;SDS011;26160;51.858;4.398;2022-11-15T16:30:19;13.70;;;3.78;;
40453;SDS011;26160;51.858;4.398;2022-11-15T16:32:46;6.65;;;2.67;;
40453;SDS011;26160;51.858;4.398;2022-11-15T16:35:13;6.95;;;2.58;;
40453;SDS011;26160;51.858;4.398;2022-11-15T16:37:41;7.15;;;2.63;;
40453;SDS011;26160;51.858;4.398;2022-11-15T16:43:15;7.85;;;3.40;;
40453;SDS011;26160;51.858;4.398;2022-11-15T16:45:41;7.63;;;3.33;;
40453;SDS011;26160;51.858;4.398;2022-11-15T16:48:16;10.57;;;3.50;;
40453;SDS011;26160;51.858;4.398;2022-11-15T16:50:50;7.18;;;3.60;;
40453;SDS011;26160;51.858;4.398;2022-11-15T16:53:21;6.50;;;3.00;;
40453;SDS011;26160;51.858;4.398;2022-11-15T17:01:24;7.87;;;3.57;;
40453;SDS011;26160;51.858;4.398;2022-11-15T17:04:08;10.02;;;3.85;;
40453;SDS011;26160;51.858;4.398;2022-11-15T17:06:42;8.50;;;3.65;;
40453;SDS011;26160;51.858;4.398;2022-11-15T17:09:29;11.82;;;3.95;;
40453;SDS011;26160;51.858;4.398;2022-11-15T17:11:57;6.35;;;3.05;;
40453;SDS011;26160;51.858;4.398;2022-11-15T17:14:23;8.07;;;3.90;;
40453;SDS011;26160;51.858;4.398;2022-11-15T17:16:50;6.32;;;3.95;;
40453;SDS011;26160;51.858;4.398;2022-11-15T17:19:17;10.68;;;4.15;;
40453;SDS011;26160;51.858;4.398;2022-11-15T17:21:45;7.18;;;3.97;;
40453;SDS011;26160;51.858;4.398;2022-11-15T17:24:11;8.93;;;4.45;;
40453;SDS011;26160;51.858;4.398;2022-11-15T17:26:37;5.80;;;3.45;;
40453;SDS011;26160;51.858;4.398;2022-11-15T17:29:04;4.40;;;3.17;;
40453;SDS011;26160;51.858;4.398;2022-11-15T17:31:35;10.20;;;3.95;;
40453;SDS011;26160;51.858;4.398;2022-11-15T17:34:03;7.05;;;3.70;;
40453;SDS011;26160;51.858;4.398;2022-11-15T17:36:30;9.50;;;4.78;;
40453;SDS011;26160;51.858;4.398;2022-11-15T17:38:56;7.10;;;4.13;;
40453;SDS011;26160;51.858;4.398;2022-11-15T17:41:22;9.05;;;3.95;;
40453;SDS011;26160;51.858;4.398;2022-11-15T17:43:49;6.47;;;3.70;;
40453;SDS011;26160;51.858;4.398;2022-11-15T17:46:16;5.40;;;3.88;;
40453;SDS011;26160;51.858;4.398;2022-11-15T17:48:43;7.45;;;3.70;;
40453;SDS011;26160;51.858;4.398;2022-11-15T17:51:11;6.60;;;4.30;;
40453;SDS011;26160;51.858;4.398;2022-11-15T17:53:40;6.05;;;4.15;;
40453;SDS011;26160;51.858;4.398;2022-11-15T17:56:11;6.43;;;4.57;;
40453;SDS011;26160;51.858;4.398;2022-11-15T17:58:48;7.68;;;4.78;;
40453;SDS011;26160;51.858;4.398;2022-11-15T18:01:19;6.80;;;4.10;;
40453;SDS011;26160;51.858;4.398;2022-11-15T18:03:51;6.20;;;4.15;;
40453;SDS011;26160;51.858;4.398;2022-11-15T18:06:20;9.55;;;4.13;;
40453;SDS011;26160;51.858;4.398;2022-11-15T18:08:47;6.18;;;4.43;;
40453;SDS011;26160;51.858;4.398;2022-11-15T18:11:19;6.55;;;4.63;;
40453;SDS011;26160;51.858;4.398;2022-11-15T18:13:48;7.57;;;5.70;;
40453;SDS011;26160;51.858;4.398;2022-11-15T18:16:17;8.75;;;5.40;;
40453;SDS011;26160;51.858;4.398;2022-11-15T18:18:45;7.50;;;4.93;;
40453;SDS011;26160;51.858;4.398;2022-11-15T18:21:12;6.97;;;5.45;;
40453;SDS011;26160;51.858;4.398;2022-11-15T18:23:41;7.10;;;6.40;;
40453;SDS011;26160;51.858;4.398;2022-11-15T18:26:09;10.80;;;8.02;;
40453;SDS011;26160;51.858;4.398;2022-11-15T18:28:37;9.25;;;6.25;;